Time;durP1;ratioP1;P1;durP2;ratioP2;P2;SDS_P1;SDS_P2;PMS_P1;PMS_P2;Temp;Humidity;BMP_temperature;BMP_pressure;BME280_temperature;BME280_humidity;BME280_pressure;Samples;Min_cycle;Max_cycle;Signal;HPM_P1;HPM_P2
2024/03/23 00:00:16;;;;;;;42.47;40.15;;;;;;;;;;5095708;28;20055;-64
2024/03/23 00:02:42;;;;;;;46.70;44.15;;;;;;;;;;5096986;27;20055;-63
2024/03/23 00:05:09;;;;;;;42.03;39.70;;;;;;;;;;5114232;27;20076;-59
2024/03/23 00:07:35;;;;;;;43.55;41.25;;;;;;;;;;5110895;27;20749;-63
2024/03/23 00:10:02;;;;;;;40.78;38.58;;;;;;;;;;5111638;27;20063;-64
2024/03/23 00:12:28;;;;;;;38.28;36.30;;;;;;;;;;5114071;27;20073;-64
2024/03/23 00:14:54;;;;;;;41.03;38.72;;;;;;;;;;5110604;27;20126;-63
2024/03/23 00:17:21;;;;;;;39.22;37.20;;;;;;;;;;5097137;27;20055;-59
2024/03/23 00:19:47;;;;;;;38.00;36.00;;;;;;;;;;5110090;27;20098;-59
2024/03/23 00:22:14;;;;;;;38.75;36.65;;;;;;;;;;5109959;28;20063;-63
2024/03/23 00:24:40;;;;;;;39.83;37.72;;;;;;;;;;5112123;28;20119;-64
2024/03/23 00:27:06;;;;;;;40.35;38.17;;;;;;;;;;5096166;28;20066;-58
2024/03/23 00:29:33;;;;;;;41.05;38.83;;;;;;;;;;5114810;28;20031;-63
2024/03/23 00:31:59;;;;;;;38.67;36.67;;;;;;;;;;5113364;28;20039;-59
2024/03/23 00:34:26;;;;;;;39.45;37.35;;;;;;;;;;5095818;28;20092;-63
2024/03/23 00:36:52;;;;;;;37.67;35.67;;;;;;;;;;5094079;28;20036;-63
2024/03/23 00:39:19;;;;;;;39.50;37.40;;;;;;;;;;5112110;28;20062;-58
2024/03/23 00:41:46;;;;;;;37.38;35.42;;;;;;;;;;5114104;28;20134;-59
2024/03/23 00:44:12;;;;;;;36.80;34.90;;;;;;;;;;5112373;28;20056;-64
2024/03/23 00:46:39;;;;;;;37.83;35.72;;;;;;;;;;5114101;28;20135;-59
2024/03/23 00:49:05;;;;;;;35.60;33.70;;;;;;;;;;5114563;28;20039;-64
2024/03/23 00:51:31;;;;;;;36.08;34.10;;;;;;;;;;5112369;28;20456;-59
2024/03/23 00:53:57;;;;;;;37.45;35.47;;;;;;;;;;5096984;28;20049;-64
2024/03/23 00:56:22;;;;;;;39.63;37.53;;;;;;;;;;5114338;28;20071;-58
2024/03/23 00:58:47;;;;;;;41.80;39.63;;;;;;;;;;5111464;28;20113;-63
2024/03/23 01:01:12;;;;;;;39.65;37.53;;;;;;;;;;5094137;28;20099;-63
2024/03/23 01:03:38;;;;;;;39.97;37.90;;;;;;;;;;5115170;28;20889;-63
2024/03/23 01:06:04;;;;;;;40.72;38.53;;;;;;;;;;5110142;28;20357;-59
2024/03/23 01:08:29;;;;;;;42.72;40.53;;;;;;;;;;5110398;28;20039;-59
2024/03/23 01:10:59;;;;;;;42.38;40.17;;;;;;;;;;5113035;28;20031;-59
2024/03/23 01:13:24;;;;;;;40.40;38.28;;;;;;;;;;5111200;28;20639;-64
2024/03/23 01:15:51;;;;;;;39.63;37.58;;;;;;;;;;5111255;28;20047;-63
2024/03/23 01:18:17;;;;;;;39.03;37.00;;;;;;;;;;5109099;28;20034;-63
2024/03/23 01:20:43;;;;;;;38.17;35.85;;;;;;;;;;5113298;28;20023;-64
2024/03/23 01:23:08;;;;;;;39.30;37.10;;;;;;;;;;5112100;28;20038;-64
2024/03/23 01:25:33;;;;;;;40.30;38.10;;;;;;;;;;5093548;28;20019;-59
2024/03/23 01:27:59;;;;;;;42.33;40.03;;;;;;;;;;5115685;27;20062;-59
2024/03/23 01:30:24;;;;;;;41.15;39.05;;;;;;;;;;5113176;27;20036;-63
2024/03/23 01:32:49;;;;;;;41.72;39.53;;;;;;;;;;5114721;27;20043;-64
2024/03/23 01:35:14;;;;;;;42.70;40.40;;;;;;;;;;5116458;27;20136;-63
2024/03/23 01:37:40;;;;;;;43.88;41.58;;;;;;;;;;5096789;27;20106;-64
2024/03/23 01:40:06;;;;;;;41.78;39.58;;;;;;;;;;5113842;27;20110;-63
2024/03/23 01:42:31;;;;;;;46.75;44.25;;;;;;;;;;5114956;27;20041;-63
2024/03/23 01:44:57;;;;;;;44.30;41.85;;;;;;;;;;5116415;27;20062;-63
2024/03/23 01:47:23;;;;;;;45.85;41.95;;;;;;;;;;5096401;27;20031;-59
2024/03/23 01:49:48;;;;;;;45.63;43.30;;;;;;;;;;5118612;27;20412;-59
2024/03/23 01:52:14;;;;;;;47.95;45.35;;;;;;;;;;5114872;27;20647;-63
2024/03/23 01:54:40;;;;;;;48.67;46.03;;;;;;;;;;5082800;27;20579;-64
2024/03/23 01:57:06;;;;;;;50.28;47.60;;;;;;;;;;5114286;27;20055;-58
2024/03/23 01:59:32;;;;;;;50.20;47.53;;;;;;;;;;5097151;27;20035;-59
2024/03/23 02:01:57;;;;;;;50.10;47.15;;;;;;;;;;5113684;27;20036;-63
2024/03/23 02:04:22;;;;;;;48.85;46.25;;;;;;;;;;5115720;27;20061;-58
2024/03/23 02:06:48;;;;;;;48.03;45.42;;;;;;;;;;5116069;27;20072;-58
2024/03/23 02:09:13;;;;;;;46.90;44.30;;;;;;;;;;5113682;27;20024;-59
2024/03/23 02:11:39;;;;;;;45.35;42.95;;;;;;;;;;5097117;27;20038;-59
2024/03/23 02:14:04;;;;;;;48.33;45.78;;;;;;;;;;5115333;27;20683;-59
2024/03/23 02:16:29;;;;;;;44.38;42.08;;;;;;;;;;5114443;27;20537;-59
2024/03/23 02:18:55;;;;;;;43.83;41.33;;;;;;;;;;5115474;27;20027;-59
2024/03/23 02:21:20;;;;;;;41.97;39.65;;;;;;;;;;5095195;27;20718;-59
2024/03/23 02:23:45;;;;;;;44.40;41.95;;;;;;;;;;5112413;27;20140;-63
2024/03/23 02:26:11;;;;;;;42.97;40.67;;;;;;;;;;5113373;27;20076;-59
2024/03/23 02:28:36;;;;;;;41.13;38.92;;;;;;;;;;5093726;27;20473;-59
2024/03/23 02:31:02;;;;;;;41.33;39.05;;;;;;;;;;5112833;27;20027;-59
2024/03/23 02:33:27;;;;;;;45.65;43.25;;;;;;;;;;5112618;27;20095;-63
2024/03/23 02:35:56;;;;;;;43.83;41.42;;;;;;;;;;5116603;27;20035;-63
2024/03/23 02:38:21;;;;;;;42.83;40.42;;;;;;;;;;5110112;27;20067;-64
2024/03/23 02:40:46;;;;;;;40.25;38.03;;;;;;;;;;5093946;27;20379;-59
2024/03/23 02:43:12;;;;;;;42.33;40.03;;;;;;;;;;5114094;27;20024;-64
2024/03/23 02:45:37;;;;;;;42.38;40.05;;;;;;;;;;5112501;27;20338;-64
2024/03/23 02:48:03;;;;;;;42.38;40.08;;;;;;;;;;5096481;27;20034;-63
2024/03/23 02:50:29;;;;;;;38.92;36.83;;;;;;;;;;5112764;27;20057;-64
2024/03/23 02:52:54;;;;;;;38.90;36.83;;;;;;;;;;5115587;27;20035;-65
2024/03/23 02:55:19;;;;;;;39.35;37.25;;;;;;;;;;5113912;27;20381;-59
2024/03/23 02:57:45;;;;;;;41.65;39.47;;;;;;;;;;5094085;27;20039;-59
2024/03/23 03:00:10;;;;;;;40.97;37.00;;;;;;;;;;5113718;27;20104;-65
2024/03/23 03:02:37;;;;;;;38.95;36.80;;;;;;;;;;5113634;27;20034;-59
2024/03/23 03:05:04;;;;;;;41.03;38.60;;;;;;;;;;5113906;27;20063;-64
2024/03/23 03:07:30;;;;;;;37.35;35.33;;;;;;;;;;5112129;27;20035;-64
2024/03/23 03:09:55;;;;;;;37.83;35.83;;;;;;;;;;5114684;27;20030;-64
2024/03/23 03:12:21;;;;;;;36.95;34.85;;;;;;;;;;5115413;27;20036;-64
2024/03/23 03:14:46;;;;;;;33.97;32.17;;;;;;;;;;5112036;27;20042;-64
2024/03/23 03:17:11;;;;;;;33.97;32.10;;;;;;;;;;5114627;27;20019;-63
2024/03/23 03:19:36;;;;;;;32.65;30.88;;;;;;;;;;5115357;27;20612;-64
2024/03/23 03:22:04;;;;;;;35.83;33.67;;;;;;;;;;5113703;27;20575;-65
2024/03/23 03:24:29;;;;;;;34.70;32.80;;;;;;;;;;5115606;27;20615;-64
2024/03/23 03:26:54;;;;;;;34.50;32.60;;;;;;;;;;5097069;27;20068;-64
2024/03/23 03:29:20;;;;;;;34.33;32.30;;;;;;;;;;5112054;27;20047;-64
2024/03/23 03:31:45;;;;;;;32.85;31.00;;;;;;;;;;5112049;27;20095;-64
2024/03/23 03:34:10;;;;;;;34.97;32.85;;;;;;;;;;5115209;27;20042;-64
2024/03/23 03:36:36;;;;;;;32.75;30.92;;;;;;;;;;5111340;27;20692;-64
2024/03/23 03:39:03;;;;;;;35.88;33.88;;;;;;;;;;5116351;27;21119;-63
2024/03/23 03:41:28;;;;;;;35.83;33.50;;;;;;;;;;5114374;27;20032;-64
2024/03/23 03:43:55;;;;;;;34.63;32.63;;;;;;;;;;5113888;27;20357;-64
2024/03/23 03:46:20;;;;;;;36.28;34.28;;;;;;;;;;5112845;27;20038;-64
2024/03/23 03:48:47;;;;;;;34.55;32.65;;;;;;;;;;5112370;27;20027;-63
2024/03/23 03:51:13;;;;;;;34.67;32.80;;;;;;;;;;5094851;27;20041;-59
2024/03/23 03:53:38;;;;;;;34.78;32.85;;;;;;;;;;5114435;27;21181;-63
2024/03/23 03:56:03;;;;;;;36.15;33.90;;;;;;;;;;5113116;27;20094;-64
2024/03/23 03:58:29;;;;;;;37.33;35.33;;;;;;;;;;5111284;27;20039;-59
2024/03/23 04:00:54;;;;;;;37.40;35.40;;;;;;;;;;5115292;27;20448;-63
2024/03/23 04:03:20;;;;;;;37.10;35.10;;;;;;;;;;5112296;27;20047;-63
2024/03/23 04:05:53;;;;;;;36.70;34.70;;;;;;;;;;5095856;27;20062;-64
2024/03/23 04:08:19;;;;;;;37.28;35.17;;;;;;;;;;5112139;27;20034;-59
2024/03/23 04:10:45;;;;;;;40.22;38.10;;;;;;;;;;5114681;27;20031;-64
2024/03/23 04:13:11;;;;;;;39.45;37.33;;;;;;;;;;5089251;28;20038;-64
2024/03/23 04:15:36;;;;;;;38.85;36.45;;;;;;;;;;5096396;28;20100;-64
2024/03/23 04:18:02;;;;;;;44.22;41.63;;;;;;;;;;5093999;27;20028;-59
2024/03/23 04:20:27;;;;;;;51.17;48.42;;;;;;;;;;5094023;28;20445;-58
2024/03/23 04:22:53;;;;;;;54.25;51.22;;;;;;;;;;5109869;28;20451;-58
2024/03/23 04:25:19;;;;;;;52.15;49.25;;;;;;;;;;5111833;27;20066;-63
2024/03/23 04:27:44;;;;;;;55.70;52.67;;;;;;;;;;5113346;28;20059;-63
2024/03/23 04:30:11;;;;;;;57.03;53.88;;;;;;;;;;5112057;28;20042;-63
2024/03/23 04:32:39;;;;;;;77.28;73.13;;;;;;;;;;5112540;28;20035;-57
2024/03/23 04:35:05;;;;;;;60.35;57.22;;;;;;;;;;5094542;28;20045;-57
2024/03/23 04:37:33;;;;;;;53.42;50.63;;;;;;;;;;5112017;28;20038;-58
2024/03/23 04:40:01;;;;;;;57.85;54.75;;;;;;;;;;5110877;28;20047;-54
2024/03/23 04:42:27;;;;;;;55.53;52.72;;;;;;;;;;5112272;28;20035;-57
2024/03/23 04:44:53;;;;;;;58.15;55.17;;;;;;;;;;5111682;28;20028;-54
2024/03/23 04:47:18;;;;;;;57.58;54.58;;;;;;;;;;5116161;28;20247;-58
2024/03/23 04:49:43;;;;;;;58.33;55.17;;;;;;;;;;5112643;28;20059;-57
2024/03/23 04:52:09;;;;;;;66.30;62.92;;;;;;;;;;5095954;28;20051;-56
2024/03/23 04:54:34;;;;;;;66.38;63.05;;;;;;;;;;5114579;28;20063;-55
2024/03/23 04:57:00;;;;;;;66.05;62.75;;;;;;;;;;5087855;28;20035;-50
2024/03/23 04:59:25;;;;;;;67.72;64.32;;;;;;;;;;5093392;28;20030;-51
2024/03/23 05:01:50;;;;;;;68.28;64.88;;;;;;;;;;5112829;27;20050;-52
2024/03/23 05:04:16;;;;;;;66.78;63.38;;;;;;;;;;5116898;27;20111;-51
2024/03/23 05:06:41;;;;;;;67.53;63.97;;;;;;;;;;5114792;27;20054;-55
2024/03/23 05:09:07;;;;;;;68.28;64.88;;;;;;;;;;5098443;27;20027;-53
2024/03/23 05:11:33;;;;;;;66.10;62.80;;;;;;;;;;5115974;27;20326;-51
2024/03/23 05:13:59;;;;;;;66.28;62.95;;;;;;;;;;5113532;27;20114;-59
2024/03/23 05:16:26;;;;;;;64.45;61.17;;;;;;;;;;5117716;27;20054;-60
2024/03/23 05:18:51;;;;;;;63.42;60.22;;;;;;;;;;5112284;27;20135;-60
2024/03/23 05:21:17;;;;;;;67.45;64.10;;;;;;;;;;5114803;27;20114;-60
2024/03/23 05:23:43;;;;;;;66.90;63.58;;;;;;;;;;5115155;27;20035;-52
2024/03/23 05:26:09;;;;;;;63.13;59.95;;;;;;;;;;5116326;27;20027;-58
2024/03/23 05:28:34;;;;;;;68.50;64.97;;;;;;;;;;5115222;27;20027;-59
2024/03/23 05:31:00;;;;;;;69.53;66.05;;;;;;;;;;5097151;27;20038;-59
2024/03/23 05:33:25;;;;;;;66.65;63.30;;;;;;;;;;5095590;27;20059;-59
2024/03/23 05:35:57;;;;;;;70.20;66.70;;;;;;;;;;5117043;27;20066;-59
2024/03/23 05:38:23;;;;;;;68.32;64.93;;;;;;;;;;5114415;27;20027;-60
2024/03/23 05:40:59;;;;;;;66.90;63.58;;;;;;;;;;5115493;27;20062;-50
2024/03/23 05:43:25;;;;;;;61.33;58.28;;;;;;;;;;5112291;27;20093;-51
2024/03/23 05:45:57;;;;;;;66.68;63.28;;;;;;;;;;5114363;27;20425;-49
2024/03/23 05:48:22;;;;;;;65.40;62.10;;;;;;;;;;5116215;27;20039;-54
2024/03/23 05:50:48;;;;;;;64.55;61.25;;;;;;;;;;5115422;27;20027;-54
2024/03/23 05:53:17;;;;;;;60.17;57.15;;;;;;;;;;5116385;27;20023;-55
2024/03/23 05:55:43;;;;;;;62.90;59.75;;;;;;;;;;5113045;27;20101;-59
2024/03/23 05:58:09;;;;;;;61.58;58.38;;;;;;;;;;5114234;27;20047;-51
2024/03/23 06:00:34;;;;;;;59.17;56.17;;;;;;;;;;5114216;27;20061;-60
2024/03/23 06:02:59;;;;;;;55.58;52.78;;;;;;;;;;5117588;27;20476;-58
2024/03/23 06:05:25;;;;;;;56.95;54.05;;;;;;;;;;5113879;27;20441;-60
2024/03/23 06:07:50;;;;;;;58.47;55.50;;;;;;;;;;5116749;27;20096;-60
2024/03/23 06:10:15;;;;;;;55.83;53.03;;;;;;;;;;5113760;27;20038;-50
2024/03/23 06:12:41;;;;;;;47.30;44.90;;;;;;;;;;5115290;27;20035;-60
2024/03/23 06:15:10;;;;;;;38.67;36.67;;;;;;;;;;5116941;27;20040;-52
2024/03/23 06:17:39;;;;;;;36.28;34.40;;;;;;;;;;5112867;27;20046;-53
2024/03/23 06:20:06;;;;;;;29.92;28.38;;;;;;;;;;5098026;27;20039;-50
2024/03/23 06:22:31;;;;;;;29.70;28.15;;;;;;;;;;5116517;27;20039;-59
2024/03/23 06:24:57;;;;;;;29.70;28.15;;;;;;;;;;5115662;27;20054;-53
2024/03/23 06:27:22;;;;;;;28.27;26.77;;;;;;;;;;5117006;27;20388;-59
2024/03/23 06:29:47;;;;;;;25.75;24.40;;;;;;;;;;5097427;27;20027;-60
2024/03/23 06:32:13;;;;;;;21.67;20.48;;;;;;;;;;5115111;27;20059;-52
2024/03/23 06:34:41;;;;;;;24.15;22.85;;;;;;;;;;5095235;27;20604;-59
2024/03/23 06:37:07;;;;;;;24.90;23.60;;;;;;;;;;5111880;27;20244;-60
2024/03/23 06:39:32;;;;;;;25.13;23.83;;;;;;;;;;5113341;27;20016;-54
2024/03/23 06:41:58;;;;;;;22.90;21.70;;;;;;;;;;5094570;27;20047;-60
2024/03/23 06:44:23;;;;;;;22.65;21.45;;;;;;;;;;5117023;27;20039;-59
2024/03/23 06:46:49;;;;;;;22.70;21.50;;;;;;;;;;5114677;27;20033;-60
2024/03/23 06:49:15;;;;;;;25.30;23.98;;;;;;;;;;5102505;27;20127;-60
2024/03/23 06:51:41;;;;;;;24.38;23.08;;;;;;;;;;5111184;27;20091;-60
2024/03/23 06:54:06;;;;;;;24.30;23.00;;;;;;;;;;5114867;27;20038;-59
2024/03/23 06:56:31;;;;;;;22.70;21.50;;;;;;;;;;5095611;27;20648;-60
2024/03/23 06:58:57;;;;;;;24.50;23.20;;;;;;;;;;5111947;27;20046;-60
2024/03/23 07:01:23;;;;;;;23.88;22.58;;;;;;;;;;5093821;27;20043;-60
2024/03/23 07:03:48;;;;;;;20.60;19.50;;;;;;;;;;5113654;27;20483;-53
2024/03/23 07:06:13;;;;;;;19.13;18.13;;;;;;;;;;5112487;27;20476;-59
2024/03/23 07:08:38;;;;;;;20.35;19.25;;;;;;;;;;5113387;27;20044;-60
2024/03/23 07:11:04;;;;;;;19.30;18.30;;;;;;;;;;5115356;27;20067;-54
2024/03/23 07:13:30;;;;;;;21.30;19.77;;;;;;;;;;5114730;27;20061;-60
2024/03/23 07:15:55;;;;;;;20.15;19.05;;;;;;;;;;5094160;27;20494;-60
2024/03/23 07:18:21;;;;;;;20.55;19.45;;;;;;;;;;5116264;27;20066;-59
2024/03/23 07:20:54;;;;;;;21.75;20.58;;;;;;;;;;5114575;27;20035;-59
2024/03/23 07:23:19;;;;;;;21.92;20.73;;;;;;;;;;5110792;27;20047;-59
2024/03/23 07:25:44;;;;;;;22.10;20.90;;;;;;;;;;5114335;27;20391;-53
2024/03/23 07:28:10;;;;;;;21.95;20.75;;;;;;;;;;5117617;27;20045;-53
2024/03/23 07:30:35;;;;;;;25.42;23.92;;;;;;;;;;5117608;27;20172;-60
2024/03/23 07:33:00;;;;;;;24.83;23.48;;;;;;;;;;5116082;27;20035;-51
2024/03/23 07:35:26;;;;;;;26.50;25.10;;;;;;;;;;5095623;28;20106;-59
2024/03/23 07:37:51;;;;;;;27.15;25.55;;;;;;;;;;5116608;27;20488;-58
2024/03/23 07:40:16;;;;;;;27.75;26.30;;;;;;;;;;5116832;27;20039;-59
2024/03/23 07:42:42;;;;;;;26.92;25.52;;;;;;;;;;5115787;27;20031;-51
2024/03/23 07:45:09;;;;;;;27.13;25.63;;;;;;;;;;5112473;27;20113;-52
2024/03/23 07:47:34;;;;;;;27.08;25.67;;;;;;;;;;5115555;27;20039;-59
2024/03/23 07:50:00;;;;;;;26.80;25.40;;;;;;;;;;5112813;27;20092;-60
2024/03/23 07:52:28;;;;;;;30.00;28.20;;;;;;;;;;5095722;27;20031;-59
2024/03/23 07:54:54;;;;;;;30.10;28.52;;;;;;;;;;5111245;27;20537;-48
2024/03/23 07:57:19;;;;;;;30.98;29.38;;;;;;;;;;5112974;27;20038;-60
2024/03/23 07:59:44;;;;;;;34.47;32.67;;;;;;;;;;5092654;28;20023;-60
2024/03/23 08:02:10;;;;;;;32.58;30.90;;;;;;;;;;5113128;27;20054;-54
2024/03/23 08:04:36;;;;;;;33.95;32.15;;;;;;;;;;5113685;27;20035;-59
2024/03/23 08:07:01;;;;;;;33.95;32.15;;;;;;;;;;5112443;27;20051;-60
2024/03/23 08:09:26;;;;;;;33.97;32.17;;;;;;;;;;5111237;27;20073;-59
2024/03/23 08:11:52;;;;;;;31.98;30.17;;;;;;;;;;5113683;27;20019;-54
2024/03/23 08:14:17;;;;;;;34.25;32.35;;;;;;;;;;5111515;27;20088;-50
2024/03/23 08:16:48;;;;;;;36.05;33.92;;;;;;;;;;5107431;27;20031;-51
2024/03/23 08:19:13;;;;;;;32.28;30.58;;;;;;;;;;5110968;27;20110;-60
2024/03/23 08:21:39;;;;;;;31.38;29.77;;;;;;;;;;5110534;27;20622;-59
2024/03/23 08:24:05;;;;;;;35.20;33.15;;;;;;;;;;5091711;27;20039;-59
2024/03/23 08:26:30;;;;;;;34.80;32.63;;;;;;;;;;5111213;27;20053;-60
2024/03/23 08:28:55;;;;;;;33.53;31.67;;;;;;;;;;5111328;28;20634;-52
2024/03/23 08:31:21;;;;;;;32.67;30.90;;;;;;;;;;5110632;28;20558;-50
2024/03/23 08:33:47;;;;;;;33.65;31.90;;;;;;;;;;5111354;28;20059;-59
2024/03/23 08:36:14;;;;;;;34.63;32.85;;;;;;;;;;5112206;28;20046;-51
2024/03/23 08:38:39;;;;;;;33.38;31.67;;;;;;;;;;5113370;27;20084;-51
2024/03/23 08:41:06;;;;;;;32.55;30.80;;;;;;;;;;5115598;27;20113;-50
2024/03/23 08:43:35;;;;;;;34.25;32.45;;;;;;;;;;5111879;27;20552;-50
2024/03/23 08:46:05;;;;;;;33.05;31.35;;;;;;;;;;5114403;27;20493;-54
2024/03/23 08:48:31;;;;;;;33.92;31.98;;;;;;;;;;5114196;27;20050;-51
2024/03/23 08:51:00;;;;;;;36.75;34.80;;;;;;;;;;5114283;27;20031;-52
2024/03/23 08:53:28;;;;;;;34.63;32.85;;;;;;;;;;5117113;27;20034;-60
2024/03/23 08:55:54;;;;;;;36.08;34.08;;;;;;;;;;5113851;27;20620;-51
2024/03/23 08:58:20;;;;;;;38.03;35.83;;;;;;;;;;5114351;27;20431;-59
2024/03/23 09:00:46;;;;;;;43.22;41.00;;;;;;;;;;5113349;27;20039;-60
2024/03/23 09:03:12;;;;;;;42.22;40.05;;;;;;;;;;5112758;27;20422;-50
2024/03/23 09:05:40;;;;;;;55.65;52.83;;;;;;;;;;5115026;27;20023;-60
2024/03/23 09:08:06;;;;;;;28.88;26.67;;;;;;;;;;5113834;27;20031;-60
2024/03/23 09:10:34;;;;;;;24.75;23.42;;;;;;;;;;5115295;27;20035;-60
2024/03/23 09:13:00;;;;;;;28.15;26.52;;;;;;;;;;5112688;27;20639;-50
2024/03/23 09:15:25;;;;;;;28.50;26.88;;;;;;;;;;5114219;27;20096;-60
2024/03/23 09:17:50;;;;;;;25.38;23.88;;;;;;;;;;5114567;27;20067;-60
2024/03/23 09:20:15;;;;;;;33.17;31.17;;;;;;;;;;5119406;27;20579;-60
2024/03/23 09:22:41;;;;;;;24.95;23.65;;;;;;;;;;5115051;27;20034;-50
2024/03/23 09:25:07;;;;;;;24.38;23.05;;;;;;;;;;5115524;27;20035;-50
2024/03/23 09:27:32;;;;;;;27.83;26.33;;;;;;;;;;5114845;27;20035;-52
2024/03/23 09:29:57;;;;;;;52.55;49.80;;;;;;;;;;5114407;27;20023;-61
2024/03/23 09:32:23;;;;;;;37.03;35.13;;;;;;;;;;5097840;27;20544;-60
2024/03/23 09:34:48;;;;;;;40.80;38.63;;;;;;;;;;5118720;27;20440;-61
2024/03/23 09:37:13;;;;;;;57.92;55.00;;;;;;;;;;5115286;27;20043;-61
2024/03/23 09:39:39;;;;;;;44.03;41.78;;;;;;;;;;5118848;27;20060;-54
2024/03/23 09:42:06;;;;;;;89.30;84.88;;;;;;;;;;5112993;27;20032;-53
2024/03/23 09:44:31;;;;;;;122.70;116.55;;;;;;;;;;5117363;27;20030;-59
2024/03/23 09:46:56;;;;;;;135.20;128.48;;;;;;;;;;5114545;27;20035;-60
2024/03/23 09:49:22;;;;;;;144.70;137.07;;;;;;;;;;5116413;27;20043;-48
2024/03/23 09:51:47;;;;;;;34.88;33.05;;;;;;;;;;5116435;27;20441;-60
2024/03/23 09:54:12;;;;;;;43.28;40.45;;;;;;;;;;5112742;27;20036;-51
2024/03/23 09:56:38;;;;;;;38.83;36.22;;;;;;;;;;5115579;27;20070;-61
2024/03/23 09:59:03;;;;;;;38.10;35.97;;;;;;;;;;5114939;27;20033;-60
2024/03/23 10:01:30;;;;;;;38.40;36.42;;;;;;;;;;5114151;27;20042;-61
2024/03/23 10:03:56;;;;;;;34.30;32.50;;;;;;;;;;5116539;27;20035;-50
2024/03/23 10:06:22;;;;;;;41.67;39.38;;;;;;;;;;5114958;27;20524;-49
2024/03/23 10:08:47;;;;;;;37.25;35.35;;;;;;;;;;5117926;27;20457;-49
2024/03/23 10:11:16;;;;;;;34.28;32.47;;;;;;;;;;5116099;27;20037;-60
2024/03/23 10:13:43;;;;;;;32.47;30.73;;;;;;;;;;5095858;27;20038;-60
2024/03/23 10:16:09;;;;;;;29.17;27.63;;;;;;;;;;5113254;27;20024;-60
2024/03/23 10:18:39;;;;;;;37.63;35.60;;;;;;;;;;5115132;27;20502;-60
2024/03/23 10:21:10;;;;;;;30.05;28.42;;;;;;;;;;5106502;27;20047;-60
2024/03/23 10:23:37;;;;;;;32.35;30.27;;;;;;;;;;5104590;27;20036;-60
2024/03/23 10:26:29;;;;;;;34.92;33.13;;;;;;;;;;5112542;27;20035;-60
2024/03/23 10:29:00;;;;;;;75.78;71.90;;;;;;;;;;5110582;27;21156;-51
2024/03/23 10:31:32;;;;;;;27.15;25.73;;;;;;;;;;5113790;27;20035;-58
2024/03/23 10:33:58;;;;;;;36.33;34.38;;;;;;;;;;5114192;27;20039;-61
2024/03/23 10:36:25;;;;;;;36.72;34.75;;;;;;;;;;5110525;27;20053;-60
2024/03/23 10:38:51;;;;;;;33.53;31.77;;;;;;;;;;5113901;27;20057;-60
2024/03/23 10:41:18;;;;;;;27.80;26.30;;;;;;;;;;5112914;27;20027;-59
2024/03/23 10:43:46;;;;;;;45.42;42.85;;;;;;;;;;5113099;27;20031;-51
2024/03/23 10:46:11;;;;;;;40.13;38.03;;;;;;;;;;5112391;27;20405;-52
2024/03/23 10:48:37;;;;;;;34.58;32.70;;;;;;;;;;5094118;27;20054;-60
2024/03/23 10:51:04;;;;;;;32.85;31.08;;;;;;;;;;5113044;27;20046;-50
2024/03/23 10:53:31;;;;;;;30.50;28.90;;;;;;;;;;5115374;27;20099;-52
2024/03/23 10:55:57;;;;;;;76.45;72.00;;;;;;;;;;5114819;27;20047;-59
2024/03/23 10:58:36;;;;;;;78.00;74.07;;;;;;;;;;5094357;27;20331;-59
2024/03/23 11:01:03;;;;;;;72.50;68.80;;;;;;;;;;5111060;27;20103;-54
2024/03/23 11:03:38;;;;;;;41.50;39.40;;;;;;;;;;5117944;27;20069;-50
2024/03/23 11:06:05;;;;;;;32.67;30.80;;;;;;;;;;5085553;27;20360;-58
2024/03/23 11:08:45;;;;;;;25.65;24.25;;;;;;;;;;5113686;27;20043;-58
2024/03/23 11:11:24;;;;;;;24.98;23.48;;;;;;;;;;5113597;27;20079;-54
2024/03/23 11:13:54;;;;;;;22.25;21.05;;;;;;;;;;5113504;27;20361;-50
2024/03/23 11:16:32;;;;;;;21.13;20.02;;;;;;;;;;5112896;27;20035;-53
2024/03/23 11:19:38;;;;;;;24.05;22.65;;;;;;;;;;5114842;27;20059;-58
2024/03/23 11:22:04;;;;;;;20.80;19.70;;;;;;;;;;5114064;27;20088;-59
2024/03/23 11:24:30;;;;;;;20.75;19.65;;;;;;;;;;5093739;27;20043;-59
2024/03/23 11:26:55;;;;;;;21.83;20.63;;;;;;;;;;5114505;27;20027;-51
2024/03/23 11:29:21;;;;;;;21.05;19.95;;;;;;;;;;5112022;27;20031;-58
2024/03/23 11:31:53;;;;;;;20.15;19.05;;;;;;;;;;5116541;27;20287;-55
2024/03/23 11:34:19;;;;;;;22.00;20.80;;;;;;;;;;5114002;27;20023;-48
2024/03/23 11:36:45;;;;;;;26.83;24.08;;;;;;;;;;5114319;27;20055;-48
2024/03/23 11:39:18;;;;;;;25.05;23.65;;;;;;;;;;5113561;27;20158;-51
2024/03/23 11:41:48;;;;;;;20.95;19.75;;;;;;;;;;5115279;27;20396;-61
2024/03/23 11:44:23;;;;;;;18.20;17.20;;;;;;;;;;5113091;27;20053;-61
2024/03/23 11:46:49;;;;;;;20.58;19.48;;;;;;;;;;5114824;27;20041;-55
2024/03/23 11:49:25;;;;;;;18.73;17.73;;;;;;;;;;5115031;27;20036;-53
2024/03/23 11:51:53;;;;;;;28.48;26.98;;;;;;;;;;5115898;27;20027;-58
2024/03/23 11:54:21;;;;;;;29.83;28.27;;;;;;;;;;5088715;27;20020;-60
2024/03/23 11:57:08;;;;;;;40.50;38.40;;;;;;;;;;5110197;27;20347;-54
2024/03/23 11:59:37;;;;;;;27.13;25.42;;;;;;;;;;5110619;27;20046;-53
2024/03/23 12:02:18;;;;;;;41.17;39.08;;;;;;;;;;5111854;27;20035;-53
2024/03/23 12:04:44;;;;;;;46.03;43.67;;;;;;;;;;5113432;27;20397;-55
2024/03/23 12:07:10;;;;;;;44.72;42.45;;;;;;;;;;5109198;27;20047;-53
2024/03/23 12:09:35;;;;;;;45.00;42.70;;;;;;;;;;5112833;27;20062;-54
2024/03/23 12:12:11;;;;;;;39.55;37.22;;;;;;;;;;5111334;27;20480;-55
2024/03/23 12:14:37;;;;;;;37.75;35.65;;;;;;;;;;5110732;27;20031;-51
2024/03/23 12:17:13;;;;;;;41.50;39.30;;;;;;;;;;5111246;27;20465;-60
2024/03/23 12:19:38;;;;;;;42.67;40.28;;;;;;;;;;5110924;27;20050;-60
2024/03/23 12:22:05;;;;;;;42.65;40.45;;;;;;;;;;5115392;27;20035;-60
2024/03/23 12:24:31;;;;;;;47.15;44.75;;;;;;;;;;5112859;27;20101;-54
2024/03/23 12:27:00;;;;;;;38.13;36.15;;;;;;;;;;5114148;27;20038;-52
2024/03/23 12:29:28;;;;;;;38.97;36.95;;;;;;;;;;5093172;28;20046;-50
2024/03/23 12:31:53;;;;;;;39.70;37.63;;;;;;;;;;5112575;28;20072;-52
2024/03/23 12:34:19;;;;;;;40.97;38.88;;;;;;;;;;5110998;28;20438;-60
2024/03/23 12:36:44;;;;;;;40.90;38.80;;;;;;;;;;5111148;28;20039;-60
2024/03/23 12:39:09;;;;;;;39.92;37.88;;;;;;;;;;5112892;28;20043;-60
2024/03/23 12:41:34;;;;;;;39.80;37.78;;;;;;;;;;5112514;28;20046;-61
2024/03/23 12:44:00;;;;;;;39.30;37.25;;;;;;;;;;5111154;28;20085;-52
2024/03/23 12:46:25;;;;;;;78.60;74.70;;;;;;;;;;5113133;28;20042;-51
2024/03/23 12:48:51;;;;;;;48.40;45.95;;;;;;;;;;5112138;28;20040;-60
2024/03/23 12:51:16;;;;;;;41.15;39.05;;;;;;;;;;5097884;28;20117;-60
2024/03/23 12:53:41;;;;;;;39.25;37.25;;;;;;;;;;5112902;28;20659;-55
2024/03/23 12:56:06;;;;;;;50.85;48.28;;;;;;;;;;5113948;28;20047;-60
2024/03/23 12:58:32;;;;;;;43.33;41.13;;;;;;;;;;5114130;28;20065;-55
2024/03/23 13:00:58;;;;;;;34.50;32.67;;;;;;;;;;5115567;28;20573;-60
2024/03/23 13:03:23;;;;;;;33.15;31.45;;;;;;;;;;5115164;28;20103;-54
2024/03/23 13:05:52;;;;;;;33.20;31.40;;;;;;;;;;5098500;28;20603;-52
2024/03/23 13:08:17;;;;;;;35.35;33.55;;;;;;;;;;5113391;28;20057;-55
2024/03/23 13:10:43;;;;;;;27.63;26.13;;;;;;;;;;5111301;28;20035;-61
2024/03/23 13:13:08;;;;;;;114.70;109.00;;;;;;;;;;5094854;28;20111;-50
2024/03/23 13:15:33;;;;;;;80.85;76.85;;;;;;;;;;5112029;28;20024;-54
2024/03/23 13:17:59;;;;;;;52.70;50.05;;;;;;;;;;5111192;28;20038;-57
2024/03/23 13:20:24;;;;;;;27.50;26.05;;;;;;;;;;5111870;28;20038;-56
2024/03/23 13:22:52;;;;;;;27.42;26.00;;;;;;;;;;5113933;27;20474;-56
2024/03/23 13:25:18;;;;;;;32.47;30.63;;;;;;;;;;5110966;27;20035;-55
2024/03/23 13:27:44;;;;;;;30.75;29.15;;;;;;;;;;5115664;27;20039;-55
2024/03/23 13:30:10;;;;;;;32.05;30.38;;;;;;;;;;5119187;27;20079;-55
2024/03/23 13:32:35;;;;;;;35.05;33.25;;;;;;;;;;5116576;27;20031;-53
2024/03/23 13:35:01;;;;;;;36.30;34.40;;;;;;;;;;5116245;27;20437;-56
2024/03/23 13:37:26;;;;;;;37.65;35.70;;;;;;;;;;5115328;27;20057;-61
2024/03/23 13:39:51;;;;;;;39.80;37.80;;;;;;;;;;5115097;27;20059;-62
2024/03/23 13:42:17;;;;;;;41.85;39.75;;;;;;;;;;5114910;27;20042;-56
2024/03/23 13:44:43;;;;;;;40.13;38.08;;;;;;;;;;5096666;27;20042;-51
2024/03/23 13:47:08;;;;;;;41.08;38.97;;;;;;;;;;5115597;27;20023;-60
2024/03/23 13:49:35;;;;;;;38.78;36.78;;;;;;;;;;5096243;27;20088;-60
2024/03/23 13:52:00;;;;;;;43.08;40.88;;;;;;;;;;5114483;27;20102;-54
2024/03/23 13:54:26;;;;;;;43.75;41.55;;;;;;;;;;5118020;27;20470;-60
2024/03/23 13:56:54;;;;;;;40.58;38.50;;;;;;;;;;5116388;27;20114;-60
2024/03/23 13:59:20;;;;;;;41.53;39.42;;;;;;;;;;5116092;27;20055;-60
2024/03/23 14:01:45;;;;;;;40.88;38.78;;;;;;;;;;5117208;27;20524;-54
2024/03/23 14:04:11;;;;;;;46.22;43.83;;;;;;;;;;5117664;27;20142;-53
2024/03/23 14:06:37;;;;;;;42.60;40.38;;;;;;;;;;5113343;27;20027;-59
2024/03/23 14:09:03;;;;;;;43.75;41.42;;;;;;;;;;5114793;27;20081;-54
2024/03/23 14:11:29;;;;;;;40.45;38.38;;;;;;;;;;5116672;27;20039;-54